<?xml version="1.0" encoding="UTF-8" standalone="no" ?>
<gpx xmlns="http://www.topografix.com/GPX/1/1" xmlns:xsi="http://www.w3.org/2001/XMLSchema-instance" xsi:schemaLocation="http://www.topografix.com/GPX/1/1 http://www.topografix.com/GPX/1/1/gpx.xsd" version="1.1" creator="VisuGPX - https://www.visugpx.com">
  <metadata>
    <name>2021-07-20 Montréal </name>
  </metadata>
  <trk>
    <name><![CDATA[2021-07-20Montréal avec Carine]]></name>
    <trkseg>
      <trkpt lat="43.19708" lon="2.14633">
        <ele>229.89</ele>
        <time>2021-07-20T05:46:19Z</time>
      </trkpt>
      <trkpt lat="43.19698" lon="2.14612">
        <ele>229.52</ele>
        <time>2021-07-20T05:47:02Z</time>
      </trkpt>
      <trkpt lat="43.19685" lon="2.14591">
        <ele>229.05</ele>
        <time>2021-07-20T05:47:11Z</time>
      </trkpt>
      <trkpt lat="43.19671" lon="2.14572">
        <ele>228.46</ele>
        <time>2021-07-20T05:47:22Z</time>
      </trkpt>
      <trkpt lat="43.19646" lon="2.14581">
        <ele>233.54</ele>
        <time>2021-07-20T05:47:54Z</time>
      </trkpt>
      <trkpt lat="43.19619" lon="2.14656">
        <ele>239.68</ele>
        <time>2021-07-20T05:48:26Z</time>
      </trkpt>
      <trkpt lat="43.19604" lon="2.14702">
        <ele>242.2</ele>
        <time>2021-07-20T05:48:43Z</time>
      </trkpt>
      <trkpt lat="43.19597" lon="2.14738">
        <ele>243.51</ele>
        <time>2021-07-20T05:48:55Z</time>
      </trkpt>
      <trkpt lat="43.19594" lon="2.1477">
        <ele>243.96</ele>
        <time>2021-07-20T05:49:07Z</time>
      </trkpt>
      <trkpt lat="43.1959" lon="2.14797">
        <ele>242.94</ele>
        <time>2021-07-20T05:49:20Z</time>
      </trkpt>
      <trkpt lat="43.19553" lon="2.14806">
        <ele>238.24</ele>
        <time>2021-07-20T05:49:39Z</time>
      </trkpt>
      <trkpt lat="43.19533" lon="2.14816">
        <ele>235.85</ele>
        <time>2021-07-20T05:49:48Z</time>
      </trkpt>
      <trkpt lat="43.19503" lon="2.1483">
        <ele>233</ele>
        <time>2021-07-20T05:50:00Z</time>
      </trkpt>
      <trkpt lat="43.19474" lon="2.14841">
        <ele>230.13</ele>
        <time>2021-07-20T05:50:11Z</time>
      </trkpt>
      <trkpt lat="43.19428" lon="2.14858">
        <ele>225.62</ele>
        <time>2021-07-20T05:50:29Z</time>
      </trkpt>
      <trkpt lat="43.19378" lon="2.14908">
        <ele>215.49</ele>
        <time>2021-07-20T05:50:56Z</time>
      </trkpt>
      <trkpt lat="43.19355" lon="2.14939">
        <ele>213.33</ele>
        <time>2021-07-20T05:51:06Z</time>
      </trkpt>
      <trkpt lat="43.19332" lon="2.14962">
        <ele>213.11</ele>
        <time>2021-07-20T05:51:15Z</time>
      </trkpt>
      <trkpt lat="43.19311" lon="2.14983">
        <ele>213.18</ele>
        <time>2021-07-20T05:51:23Z</time>
      </trkpt>
      <trkpt lat="43.1929" lon="2.14995">
        <ele>213.21</ele>
        <time>2021-07-20T05:51:31Z</time>
      </trkpt>
      <trkpt lat="43.19266" lon="2.14999">
        <ele>213.51</ele>
        <time>2021-07-20T05:51:40Z</time>
      </trkpt>
      <trkpt lat="43.19246" lon="2.14997">
        <ele>213.27</ele>
        <time>2021-07-20T05:51:47Z</time>
      </trkpt>
      <trkpt lat="43.19228" lon="2.14994">
        <ele>212.64</ele>
        <time>2021-07-20T05:51:54Z</time>
      </trkpt>
      <trkpt lat="43.19206" lon="2.14996">
        <ele>212.06</ele>
        <time>2021-07-20T05:52:01Z</time>
      </trkpt>
      <trkpt lat="43.19186" lon="2.15003">
        <ele>210.78</ele>
        <time>2021-07-20T05:52:09Z</time>
      </trkpt>
      <trkpt lat="43.19165" lon="2.15016">
        <ele>209.09</ele>
        <time>2021-07-20T05:52:18Z</time>
      </trkpt>
      <trkpt lat="43.19146" lon="2.15032">
        <ele>207.06</ele>
        <time>2021-07-20T05:52:27Z</time>
      </trkpt>
      <trkpt lat="43.19126" lon="2.15042">
        <ele>205.76</ele>
        <time>2021-07-20T05:52:34Z</time>
      </trkpt>
      <trkpt lat="43.19104" lon="2.15049">
        <ele>204.4</ele>
        <time>2021-07-20T05:52:42Z</time>
      </trkpt>
      <trkpt lat="43.19084" lon="2.15056">
        <ele>203.47</ele>
        <time>2021-07-20T05:52:49Z</time>
      </trkpt>
      <trkpt lat="43.19064" lon="2.15064">
        <ele>202.44</ele>
        <time>2021-07-20T05:52:57Z</time>
      </trkpt>
      <trkpt lat="43.19039" lon="2.15072">
        <ele>201.45</ele>
        <time>2021-07-20T05:53:05Z</time>
      </trkpt>
      <trkpt lat="43.1902" lon="2.15085">
        <ele>200.51</ele>
        <time>2021-07-20T05:53:12Z</time>
      </trkpt>
      <trkpt lat="43.18997" lon="2.15099">
        <ele>199.31</ele>
        <time>2021-07-20T05:53:20Z</time>
      </trkpt>
      <trkpt lat="43.18978" lon="2.15111">
        <ele>198.79</ele>
        <time>2021-07-20T05:53:27Z</time>
      </trkpt>
      <trkpt lat="43.18959" lon="2.15123">
        <ele>198.49</ele>
        <time>2021-07-20T05:53:34Z</time>
      </trkpt>
      <trkpt lat="43.18943" lon="2.15136">
        <ele>198</ele>
        <time>2021-07-20T05:53:42Z</time>
      </trkpt>
      <trkpt lat="43.18925" lon="2.15155">
        <ele>198.06</ele>
        <time>2021-07-20T05:53:51Z</time>
      </trkpt>
      <trkpt lat="43.18885" lon="2.15192">
        <ele>198.83</ele>
        <time>2021-07-20T05:54:15Z</time>
      </trkpt>
      <trkpt lat="43.18849" lon="2.15196">
        <ele>199.13</ele>
        <time>2021-07-20T05:54:24Z</time>
      </trkpt>
      <trkpt lat="43.18827" lon="2.15176">
        <ele>198.76</ele>
        <time>2021-07-20T05:54:32Z</time>
      </trkpt>
      <trkpt lat="43.18806" lon="2.15176">
        <ele>198.37</ele>
        <time>2021-07-20T05:54:40Z</time>
      </trkpt>
      <trkpt lat="43.18786" lon="2.15183">
        <ele>198.36</ele>
        <time>2021-07-20T05:54:50Z</time>
      </trkpt>
      <trkpt lat="43.18763" lon="2.152">
        <ele>198.66</ele>
        <time>2021-07-20T05:55:03Z</time>
      </trkpt>
      <trkpt lat="43.18741" lon="2.15229">
        <ele>200.45</ele>
        <time>2021-07-20T05:55:23Z</time>
      </trkpt>
      <trkpt lat="43.18705" lon="2.15342">
        <ele>200.99</ele>
        <time>2021-07-20T05:55:50Z</time>
      </trkpt>
      <trkpt lat="43.18687" lon="2.15381">
        <ele>200.85</ele>
        <time>2021-07-20T05:55:59Z</time>
      </trkpt>
      <trkpt lat="43.18674" lon="2.15412">
        <ele>201.3</ele>
        <time>2021-07-20T05:56:07Z</time>
      </trkpt>
      <trkpt lat="43.18662" lon="2.15438">
        <ele>201.78</ele>
        <time>2021-07-20T05:56:16Z</time>
      </trkpt>
      <trkpt lat="43.18652" lon="2.15459">
        <ele>202.3</ele>
        <time>2021-07-20T05:56:25Z</time>
      </trkpt>
      <trkpt lat="43.18636" lon="2.15483">
        <ele>202.56</ele>
        <time>2021-07-20T05:56:33Z</time>
      </trkpt>
      <trkpt lat="43.18621" lon="2.15508">
        <ele>202.9</ele>
        <time>2021-07-20T05:56:41Z</time>
      </trkpt>
      <trkpt lat="43.18604" lon="2.15533">
        <ele>203.71</ele>
        <time>2021-07-20T05:56:50Z</time>
      </trkpt>
      <trkpt lat="43.18589" lon="2.15562">
        <ele>204.77</ele>
        <time>2021-07-20T05:57:00Z</time>
      </trkpt>
      <trkpt lat="43.18566" lon="2.15587">
        <ele>204.61</ele>
        <time>2021-07-20T05:57:12Z</time>
      </trkpt>
      <trkpt lat="43.18544" lon="2.15607">
        <ele>204.24</ele>
        <time>2021-07-20T05:57:21Z</time>
      </trkpt>
      <trkpt lat="43.18525" lon="2.15621">
        <ele>204.16</ele>
        <time>2021-07-20T05:57:29Z</time>
      </trkpt>
      <trkpt lat="43.18504" lon="2.15639">
        <ele>204.43</ele>
        <time>2021-07-20T05:57:38Z</time>
      </trkpt>
      <trkpt lat="43.18487" lon="2.15658">
        <ele>204.63</ele>
        <time>2021-07-20T05:57:47Z</time>
      </trkpt>
      <trkpt lat="43.18472" lon="2.15682">
        <ele>204.76</ele>
        <time>2021-07-20T05:57:57Z</time>
      </trkpt>
      <trkpt lat="43.18451" lon="2.15723">
        <ele>204.84</ele>
        <time>2021-07-20T05:58:12Z</time>
      </trkpt>
      <trkpt lat="43.18439" lon="2.15761">
        <ele>205.33</ele>
        <time>2021-07-20T05:58:26Z</time>
      </trkpt>
      <trkpt lat="43.18419" lon="2.15794">
        <ele>205.37</ele>
        <time>2021-07-20T05:58:34Z</time>
      </trkpt>
      <trkpt lat="43.18425" lon="2.15826">
        <ele>205.54</ele>
        <time>2021-07-20T05:58:42Z</time>
      </trkpt>
      <trkpt lat="43.1842" lon="2.15866">
        <ele>205.33</ele>
        <time>2021-07-20T05:58:51Z</time>
      </trkpt>
      <trkpt lat="43.18419" lon="2.15872">
        <ele>205.4</ele>
        <time>2021-07-20T05:58:53Z</time>
      </trkpt>
      <trkpt lat="43.18392" lon="2.15954">
        <ele>209.53</ele>
        <time>2021-07-20T05:59:27Z</time>
      </trkpt>
      <trkpt lat="43.18375" lon="2.15972">
        <ele>209.65</ele>
        <time>2021-07-20T05:59:53Z</time>
      </trkpt>
      <trkpt lat="43.18337" lon="2.16016">
        <ele>210.64</ele>
        <time>2021-07-20T06:00:13Z</time>
      </trkpt>
      <trkpt lat="43.18319" lon="2.1604">
        <ele>211.68</ele>
        <time>2021-07-20T06:00:22Z</time>
      </trkpt>
      <trkpt lat="43.18307" lon="2.16073">
        <ele>212.17</ele>
        <time>2021-07-20T06:00:31Z</time>
      </trkpt>
      <trkpt lat="43.18277" lon="2.16152">
        <ele>214.73</ele>
        <time>2021-07-20T06:00:58Z</time>
      </trkpt>
      <trkpt lat="43.18254" lon="2.16175">
        <ele>216.19</ele>
        <time>2021-07-20T06:01:08Z</time>
      </trkpt>
      <trkpt lat="43.18234" lon="2.16192">
        <ele>217.57</ele>
        <time>2021-07-20T06:01:18Z</time>
      </trkpt>
      <trkpt lat="43.18189" lon="2.1629">
        <ele>219.38</ele>
        <time>2021-07-20T06:01:54Z</time>
      </trkpt>
      <trkpt lat="43.18157" lon="2.16407">
        <ele>222.05</ele>
        <time>2021-07-20T06:02:33Z</time>
      </trkpt>
      <trkpt lat="43.18148" lon="2.16453">
        <ele>224.75</ele>
        <time>2021-07-20T06:02:47Z</time>
      </trkpt>
      <trkpt lat="43.18059" lon="2.16599">
        <ele>222.49</ele>
        <time>2021-07-20T06:03:32Z</time>
      </trkpt>
      <trkpt lat="43.18035" lon="2.1661">
        <ele>221.48</ele>
        <time>2021-07-20T06:03:56Z</time>
      </trkpt>
      <trkpt lat="43.18002" lon="2.16655">
        <ele>220.71</ele>
        <time>2021-07-20T06:04:14Z</time>
      </trkpt>
      <trkpt lat="43.17969" lon="2.16669">
        <ele>220.89</ele>
        <time>2021-07-20T06:04:24Z</time>
      </trkpt>
      <trkpt lat="43.17953" lon="2.16698">
        <ele>221.35</ele>
        <time>2021-07-20T06:04:33Z</time>
      </trkpt>
      <trkpt lat="43.17919" lon="2.16747">
        <ele>221.5</ele>
        <time>2021-07-20T06:04:51Z</time>
      </trkpt>
      <trkpt lat="43.17873" lon="2.16777">
        <ele>224.34</ele>
        <time>2021-07-20T06:05:15Z</time>
      </trkpt>
      <trkpt lat="43.17839" lon="2.16801">
        <ele>226.76</ele>
        <time>2021-07-20T06:05:31Z</time>
      </trkpt>
      <trkpt lat="43.17745" lon="2.16887">
        <ele>237.11</ele>
        <time>2021-07-20T06:06:23Z</time>
      </trkpt>
      <trkpt lat="43.1773" lon="2.16911">
        <ele>238.79</ele>
        <time>2021-07-20T06:06:33Z</time>
      </trkpt>
      <trkpt lat="43.17715" lon="2.16934">
        <ele>241.59</ele>
        <time>2021-07-20T06:06:42Z</time>
      </trkpt>
      <trkpt lat="43.17702" lon="2.16956">
        <ele>243.55</ele>
        <time>2021-07-20T06:06:52Z</time>
      </trkpt>
      <trkpt lat="43.17687" lon="2.16975">
        <ele>245.58</ele>
        <time>2021-07-20T06:07:02Z</time>
      </trkpt>
      <trkpt lat="43.17672" lon="2.16996">
        <ele>247.5</ele>
        <time>2021-07-20T06:07:12Z</time>
      </trkpt>
      <trkpt lat="43.1766" lon="2.17016">
        <ele>249.46</ele>
        <time>2021-07-20T06:07:22Z</time>
      </trkpt>
      <trkpt lat="43.17651" lon="2.17041">
        <ele>251.4</ele>
        <time>2021-07-20T06:07:33Z</time>
      </trkpt>
      <trkpt lat="43.17645" lon="2.17071">
        <ele>252.43</ele>
        <time>2021-07-20T06:07:44Z</time>
      </trkpt>
      <trkpt lat="43.17636" lon="2.17096">
        <ele>253.08</ele>
        <time>2021-07-20T06:07:54Z</time>
      </trkpt>
      <trkpt lat="43.17626" lon="2.17125">
        <ele>253.84</ele>
        <time>2021-07-20T06:08:04Z</time>
      </trkpt>
      <trkpt lat="43.17614" lon="2.17151">
        <ele>254.59</ele>
        <time>2021-07-20T06:08:13Z</time>
      </trkpt>
      <trkpt lat="43.17604" lon="2.1718">
        <ele>255.3</ele>
        <time>2021-07-20T06:08:23Z</time>
      </trkpt>
      <trkpt lat="43.17594" lon="2.17208">
        <ele>256.08</ele>
        <time>2021-07-20T06:08:32Z</time>
      </trkpt>
      <trkpt lat="43.17583" lon="2.17235">
        <ele>256.73</ele>
        <time>2021-07-20T06:08:41Z</time>
      </trkpt>
      <trkpt lat="43.17572" lon="2.1726">
        <ele>258.21</ele>
        <time>2021-07-20T06:08:52Z</time>
      </trkpt>
      <trkpt lat="43.17559" lon="2.17287">
        <ele>259.63</ele>
        <time>2021-07-20T06:09:04Z</time>
      </trkpt>
      <trkpt lat="43.17542" lon="2.17313">
        <ele>263.49</ele>
        <time>2021-07-20T06:09:23Z</time>
      </trkpt>
      <trkpt lat="43.17496" lon="2.17396">
        <ele>274.63</ele>
        <time>2021-07-20T06:10:03Z</time>
      </trkpt>
      <trkpt lat="43.17456" lon="2.1745">
        <ele>285.33</ele>
        <time>2021-07-20T06:10:43Z</time>
      </trkpt>
      <trkpt lat="43.17412" lon="2.17536">
        <ele>293.22</ele>
        <time>2021-07-20T06:11:23Z</time>
      </trkpt>
      <trkpt lat="43.17364" lon="2.17651">
        <ele>301.19</ele>
        <time>2021-07-20T06:12:16Z</time>
      </trkpt>
      <trkpt lat="43.17327" lon="2.17737">
        <ele>309.25</ele>
        <time>2021-07-20T06:12:58Z</time>
      </trkpt>
      <trkpt lat="43.17309" lon="2.17784">
        <ele>310.88</ele>
        <time>2021-07-20T06:13:17Z</time>
      </trkpt>
      <trkpt lat="43.17245" lon="2.17942">
        <ele>313.91</ele>
        <time>2021-07-20T06:14:23Z</time>
      </trkpt>
      <trkpt lat="43.1723" lon="2.17978">
        <ele>315.2</ele>
        <time>2021-07-20T06:14:54Z</time>
      </trkpt>
      <trkpt lat="43.17232" lon="2.18007">
        <ele>312.56</ele>
        <time>2021-07-20T06:15:27Z</time>
      </trkpt>
      <trkpt lat="43.17248" lon="2.18048">
        <ele>305.6</ele>
        <time>2021-07-20T06:15:49Z</time>
      </trkpt>
      <trkpt lat="43.17261" lon="2.18098">
        <ele>296.89</ele>
        <time>2021-07-20T06:16:12Z</time>
      </trkpt>
      <trkpt lat="43.17271" lon="2.18147">
        <ele>292.88</ele>
        <time>2021-07-20T06:16:29Z</time>
      </trkpt>
      <trkpt lat="43.17279" lon="2.18185">
        <ele>291.38</ele>
        <time>2021-07-20T06:16:39Z</time>
      </trkpt>
      <trkpt lat="43.17293" lon="2.18212">
        <ele>290.47</ele>
        <time>2021-07-20T06:16:48Z</time>
      </trkpt>
      <trkpt lat="43.17322" lon="2.18239">
        <ele>288.87</ele>
        <time>2021-07-20T06:17:06Z</time>
      </trkpt>
      <trkpt lat="43.17352" lon="2.18249">
        <ele>287.18</ele>
        <time>2021-07-20T06:17:32Z</time>
      </trkpt>
      <trkpt lat="43.17375" lon="2.18272">
        <ele>275.73</ele>
        <time>2021-07-20T06:17:55Z</time>
      </trkpt>
      <trkpt lat="43.17417" lon="2.18316">
        <ele>255.54</ele>
        <time>2021-07-20T06:18:32Z</time>
      </trkpt>
      <trkpt lat="43.17429" lon="2.18269">
        <ele>254.14</ele>
        <time>2021-07-20T06:19:11Z</time>
      </trkpt>
      <trkpt lat="43.17441" lon="2.18181">
        <ele>252.97</ele>
        <time>2021-07-20T06:20:00Z</time>
      </trkpt>
      <trkpt lat="43.17517" lon="2.18052">
        <ele>245.11</ele>
        <time>2021-07-20T06:21:25Z</time>
      </trkpt>
      <trkpt lat="43.17539" lon="2.18052">
        <ele>248.93</ele>
        <time>2021-07-20T06:22:10Z</time>
      </trkpt>
      <trkpt lat="43.17543" lon="2.18097">
        <ele>255.03</ele>
        <time>2021-07-20T06:22:34Z</time>
      </trkpt>
      <trkpt lat="43.17556" lon="2.18136">
        <ele>261.82</ele>
        <time>2021-07-20T06:23:00Z</time>
      </trkpt>
      <trkpt lat="43.17563" lon="2.18147">
        <ele>262.49</ele>
        <time>2021-07-20T06:23:08Z</time>
      </trkpt>
      <trkpt lat="43.17572" lon="2.18221">
        <ele>268.6</ele>
        <time>2021-07-20T06:23:49Z</time>
      </trkpt>
      <trkpt lat="43.17573" lon="2.18256">
        <ele>274.82</ele>
        <time>2021-07-20T06:24:17Z</time>
      </trkpt>
      <trkpt lat="43.17622" lon="2.183">
        <ele>274.08</ele>
        <time>2021-07-20T06:25:06Z</time>
      </trkpt>
      <trkpt lat="43.17675" lon="2.18325">
        <ele>274.5</ele>
        <time>2021-07-20T06:26:00Z</time>
      </trkpt>
      <trkpt lat="43.17671" lon="2.18346">
        <ele>281.06</ele>
        <time>2021-07-20T06:26:25Z</time>
      </trkpt>
      <trkpt lat="43.17648" lon="2.18365">
        <ele>288.1</ele>
        <time>2021-07-20T06:26:55Z</time>
      </trkpt>
      <trkpt lat="43.17611" lon="2.18383">
        <ele>292.64</ele>
        <time>2021-07-20T06:27:31Z</time>
      </trkpt>
      <trkpt lat="43.17628" lon="2.18444">
        <ele>299.26</ele>
        <time>2021-07-20T06:28:09Z</time>
      </trkpt>
      <trkpt lat="43.17633" lon="2.18487">
        <ele>303.27</ele>
        <time>2021-07-20T06:28:35Z</time>
      </trkpt>
      <trkpt lat="43.17649" lon="2.18646">
        <ele>306.19</ele>
        <time>2021-07-20T06:29:37Z</time>
      </trkpt>
      <trkpt lat="43.1766" lon="2.18712">
        <ele>311.56</ele>
        <time>2021-07-20T06:30:01Z</time>
      </trkpt>
      <trkpt lat="43.17656" lon="2.18758">
        <ele>312.9</ele>
        <time>2021-07-20T06:30:14Z</time>
      </trkpt>
      <trkpt lat="43.17659" lon="2.18808">
        <ele>313.18</ele>
        <time>2021-07-20T06:30:27Z</time>
      </trkpt>
      <trkpt lat="43.17663" lon="2.18841">
        <ele>312.62</ele>
        <time>2021-07-20T06:31:09Z</time>
      </trkpt>
      <trkpt lat="43.17686" lon="2.18879">
        <ele>310.02</ele>
        <time>2021-07-20T06:31:42Z</time>
      </trkpt>
      <trkpt lat="43.17729" lon="2.18934">
        <ele>317.93</ele>
        <time>2021-07-20T06:32:37Z</time>
      </trkpt>
      <trkpt lat="43.17762" lon="2.189">
        <ele>323.78</ele>
        <time>2021-07-20T06:33:11Z</time>
      </trkpt>
      <trkpt lat="43.17817" lon="2.18914">
        <ele>324.79</ele>
        <time>2021-07-20T06:33:20Z</time>
      </trkpt>
      <trkpt lat="43.17838" lon="2.18962">
        <ele>329.3</ele>
        <time>2021-07-20T06:33:55Z</time>
      </trkpt>
      <trkpt lat="43.17862" lon="2.19093">
        <ele>336.62</ele>
        <time>2021-07-20T06:34:48Z</time>
      </trkpt>
      <trkpt lat="43.17888" lon="2.19199">
        <ele>344.89</ele>
        <time>2021-07-20T06:35:38Z</time>
      </trkpt>
      <trkpt lat="43.17881" lon="2.1926">
        <ele>348.08</ele>
        <time>2021-07-20T06:35:52Z</time>
      </trkpt>
      <trkpt lat="43.1788" lon="2.19292">
        <ele>350.03</ele>
        <time>2021-07-20T06:36:09Z</time>
      </trkpt>
      <trkpt lat="43.17888" lon="2.19339">
        <ele>341.15</ele>
        <time>2021-07-20T06:36:36Z</time>
      </trkpt>
      <trkpt lat="43.17944" lon="2.19367">
        <ele>335.12</ele>
        <time>2021-07-20T06:36:58Z</time>
      </trkpt>
      <trkpt lat="43.1798" lon="2.19391">
        <ele>330.64</ele>
        <time>2021-07-20T06:37:14Z</time>
      </trkpt>
      <trkpt lat="43.18037" lon="2.19394">
        <ele>323.57</ele>
        <time>2021-07-20T06:37:42Z</time>
      </trkpt>
      <trkpt lat="43.18061" lon="2.19398">
        <ele>319.62</ele>
        <time>2021-07-20T06:37:51Z</time>
      </trkpt>
      <trkpt lat="43.18079" lon="2.19422">
        <ele>316.88</ele>
        <time>2021-07-20T06:38:01Z</time>
      </trkpt>
      <trkpt lat="43.18128" lon="2.19431">
        <ele>313.83</ele>
        <time>2021-07-20T06:38:17Z</time>
      </trkpt>
      <trkpt lat="43.18152" lon="2.19439">
        <ele>312.23</ele>
        <time>2021-07-20T06:38:26Z</time>
      </trkpt>
      <trkpt lat="43.18231" lon="2.19486">
        <ele>299.71</ele>
        <time>2021-07-20T06:39:10Z</time>
      </trkpt>
      <trkpt lat="43.18351" lon="2.19516">
        <ele>283.39</ele>
        <time>2021-07-20T06:40:00Z</time>
      </trkpt>
      <trkpt lat="43.18375" lon="2.19539">
        <ele>280.49</ele>
        <time>2021-07-20T06:40:10Z</time>
      </trkpt>
      <trkpt lat="43.18412" lon="2.19591">
        <ele>272.64</ele>
        <time>2021-07-20T06:40:33Z</time>
      </trkpt>
      <trkpt lat="43.18417" lon="2.19596">
        <ele>272.37</ele>
        <time>2021-07-20T06:40:35Z</time>
      </trkpt>
      <trkpt lat="43.18439" lon="2.19625">
        <ele>269.22</ele>
        <time>2021-07-20T06:40:46Z</time>
      </trkpt>
      <trkpt lat="43.18455" lon="2.1965">
        <ele>267.23</ele>
        <time>2021-07-20T06:40:56Z</time>
      </trkpt>
      <trkpt lat="43.18468" lon="2.1968">
        <ele>265.77</ele>
        <time>2021-07-20T06:41:06Z</time>
      </trkpt>
      <trkpt lat="43.18485" lon="2.19707">
        <ele>265.32</ele>
        <time>2021-07-20T06:41:15Z</time>
      </trkpt>
      <trkpt lat="43.18501" lon="2.19732">
        <ele>264.72</ele>
        <time>2021-07-20T06:41:23Z</time>
      </trkpt>
      <trkpt lat="43.18518" lon="2.19754">
        <ele>263.84</ele>
        <time>2021-07-20T06:41:31Z</time>
      </trkpt>
      <trkpt lat="43.18535" lon="2.19777">
        <ele>263.06</ele>
        <time>2021-07-20T06:41:40Z</time>
      </trkpt>
      <trkpt lat="43.18552" lon="2.198">
        <ele>262.64</ele>
        <time>2021-07-20T06:41:49Z</time>
      </trkpt>
      <trkpt lat="43.18568" lon="2.19823">
        <ele>261.45</ele>
        <time>2021-07-20T06:41:59Z</time>
      </trkpt>
      <trkpt lat="43.18583" lon="2.19845">
        <ele>260.47</ele>
        <time>2021-07-20T06:42:08Z</time>
      </trkpt>
      <trkpt lat="43.18596" lon="2.19868">
        <ele>259.11</ele>
        <time>2021-07-20T06:42:16Z</time>
      </trkpt>
      <trkpt lat="43.18611" lon="2.19893">
        <ele>257.45</ele>
        <time>2021-07-20T06:42:23Z</time>
      </trkpt>
      <trkpt lat="43.18626" lon="2.19921">
        <ele>256.01</ele>
        <time>2021-07-20T06:42:31Z</time>
      </trkpt>
      <trkpt lat="43.18643" lon="2.19944">
        <ele>255.03</ele>
        <time>2021-07-20T06:42:39Z</time>
      </trkpt>
      <trkpt lat="43.18659" lon="2.19963">
        <ele>254.5</ele>
        <time>2021-07-20T06:42:46Z</time>
      </trkpt>
      <trkpt lat="43.18675" lon="2.19978">
        <ele>253.72</ele>
        <time>2021-07-20T06:42:54Z</time>
      </trkpt>
      <trkpt lat="43.18691" lon="2.19997">
        <ele>253.23</ele>
        <time>2021-07-20T06:43:02Z</time>
      </trkpt>
      <trkpt lat="43.18706" lon="2.20017">
        <ele>252.85</ele>
        <time>2021-07-20T06:43:10Z</time>
      </trkpt>
      <trkpt lat="43.18725" lon="2.20032">
        <ele>251.88</ele>
        <time>2021-07-20T06:43:18Z</time>
      </trkpt>
      <trkpt lat="43.18773" lon="2.20079">
        <ele>243.4</ele>
        <time>2021-07-20T06:43:53Z</time>
      </trkpt>
      <trkpt lat="43.18972" lon="2.20217">
        <ele>205.96</ele>
        <time>2021-07-20T06:45:30Z</time>
      </trkpt>
      <trkpt lat="43.18993" lon="2.20239">
        <ele>203.57</ele>
        <time>2021-07-20T06:45:39Z</time>
      </trkpt>
      <trkpt lat="43.1901" lon="2.20261">
        <ele>201.72</ele>
        <time>2021-07-20T06:45:48Z</time>
      </trkpt>
      <trkpt lat="43.19045" lon="2.20293">
        <ele>201.67</ele>
        <time>2021-07-20T06:46:03Z</time>
      </trkpt>
      <trkpt lat="43.19054" lon="2.2023">
        <ele>204.55</ele>
        <time>2021-07-20T06:46:16Z</time>
      </trkpt>
      <trkpt lat="43.1906" lon="2.20199">
        <ele>208.26</ele>
        <time>2021-07-20T06:46:31Z</time>
      </trkpt>
      <trkpt lat="43.19065" lon="2.20171">
        <ele>211.3</ele>
        <time>2021-07-20T06:46:48Z</time>
      </trkpt>
      <trkpt lat="43.19068" lon="2.20127">
        <ele>214.19</ele>
        <time>2021-07-20T06:47:07Z</time>
      </trkpt>
      <trkpt lat="43.19081" lon="2.20006">
        <ele>217.8</ele>
        <time>2021-07-20T06:47:59Z</time>
      </trkpt>
      <trkpt lat="43.19077" lon="2.1993">
        <ele>220.47</ele>
        <time>2021-07-20T06:48:36Z</time>
      </trkpt>
      <trkpt lat="43.19094" lon="2.19879">
        <ele>221.51</ele>
        <time>2021-07-20T06:48:57Z</time>
      </trkpt>
      <trkpt lat="43.19108" lon="2.19843">
        <ele>222.07</ele>
        <time>2021-07-20T06:49:17Z</time>
      </trkpt>
      <trkpt lat="43.19142" lon="2.19812">
        <ele>221.52</ele>
        <time>2021-07-20T06:49:28Z</time>
      </trkpt>
      <trkpt lat="43.1917" lon="2.19776">
        <ele>219.33</ele>
        <time>2021-07-20T06:49:44Z</time>
      </trkpt>
      <trkpt lat="43.19185" lon="2.19742">
        <ele>217.96</ele>
        <time>2021-07-20T06:49:53Z</time>
      </trkpt>
      <trkpt lat="43.19209" lon="2.19641">
        <ele>215.16</ele>
        <time>2021-07-20T06:50:12Z</time>
      </trkpt>
      <trkpt lat="43.19165" lon="2.19592">
        <ele>211.35</ele>
        <time>2021-07-20T06:50:32Z</time>
      </trkpt>
      <trkpt lat="43.1911" lon="2.19593">
        <ele>209.08</ele>
        <time>2021-07-20T06:50:50Z</time>
      </trkpt>
      <trkpt lat="43.19088" lon="2.19552">
        <ele>208.34</ele>
        <time>2021-07-20T06:51:05Z</time>
      </trkpt>
      <trkpt lat="43.19021" lon="2.1955">
        <ele>204.12</ele>
        <time>2021-07-20T06:52:33Z</time>
      </trkpt>
      <trkpt lat="43.18934" lon="2.19518">
        <ele>200.17</ele>
        <time>2021-07-20T06:53:02Z</time>
      </trkpt>
      <trkpt lat="43.18969" lon="2.1948">
        <ele>207.43</ele>
        <time>2021-07-20T06:53:52Z</time>
      </trkpt>
      <trkpt lat="43.18975" lon="2.19402">
        <ele>213.4</ele>
        <time>2021-07-20T06:54:19Z</time>
      </trkpt>
      <trkpt lat="43.18979" lon="2.19356">
        <ele>216.12</ele>
        <time>2021-07-20T06:54:40Z</time>
      </trkpt>
      <trkpt lat="43.18986" lon="2.19309">
        <ele>217.9</ele>
        <time>2021-07-20T06:54:51Z</time>
      </trkpt>
      <trkpt lat="43.1898" lon="2.19285">
        <ele>222.14</ele>
        <time>2021-07-20T06:55:25Z</time>
      </trkpt>
      <trkpt lat="43.18962" lon="2.19249">
        <ele>221.79</ele>
        <time>2021-07-20T06:55:54Z</time>
      </trkpt>
      <trkpt lat="43.18945" lon="2.19218">
        <ele>224.04</ele>
        <time>2021-07-20T06:56:23Z</time>
      </trkpt>
      <trkpt lat="43.18943" lon="2.19184">
        <ele>226.99</ele>
        <time>2021-07-20T06:56:51Z</time>
      </trkpt>
      <trkpt lat="43.18934" lon="2.19156">
        <ele>227.63</ele>
        <time>2021-07-20T06:57:16Z</time>
      </trkpt>
      <trkpt lat="43.18911" lon="2.19081">
        <ele>232.89</ele>
        <time>2021-07-20T06:57:43Z</time>
      </trkpt>
      <trkpt lat="43.18919" lon="2.19057">
        <ele>235.85</ele>
        <time>2021-07-20T06:58:19Z</time>
      </trkpt>
      <trkpt lat="43.18937" lon="2.19017">
        <ele>237.13</ele>
        <time>2021-07-20T06:58:52Z</time>
      </trkpt>
      <trkpt lat="43.18947" lon="2.18987">
        <ele>231.44</ele>
        <time>2021-07-20T06:59:16Z</time>
      </trkpt>
      <trkpt lat="43.18966" lon="2.18956">
        <ele>224.09</ele>
        <time>2021-07-20T06:59:59Z</time>
      </trkpt>
      <trkpt lat="43.18972" lon="2.18891">
        <ele>230.52</ele>
        <time>2021-07-20T07:00:43Z</time>
      </trkpt>
      <trkpt lat="43.18983" lon="2.18861">
        <ele>234.69</ele>
        <time>2021-07-20T07:01:13Z</time>
      </trkpt>
      <trkpt lat="43.18969" lon="2.18837">
        <ele>235.32</ele>
        <time>2021-07-20T07:02:02Z</time>
      </trkpt>
      <trkpt lat="43.18975" lon="2.1884">
        <ele>235.96</ele>
        <time>2021-07-20T07:02:46Z</time>
      </trkpt>
      <trkpt lat="43.18985" lon="2.18825">
        <ele>236.88</ele>
        <time>2021-07-20T07:03:34Z</time>
      </trkpt>
      <trkpt lat="43.18983" lon="2.18843">
        <ele>238.92</ele>
        <time>2021-07-20T07:04:46Z</time>
      </trkpt>
      <trkpt lat="43.18974" lon="2.18825">
        <ele>240.63</ele>
        <time>2021-07-20T07:06:05Z</time>
      </trkpt>
      <trkpt lat="43.18976" lon="2.18822">
        <ele>242.13</ele>
        <time>2021-07-20T07:07:06Z</time>
      </trkpt>
      <trkpt lat="43.1898" lon="2.18815">
        <ele>243.94</ele>
        <time>2021-07-20T07:08:17Z</time>
      </trkpt>
      <trkpt lat="43.18981" lon="2.18807">
        <ele>245.73</ele>
        <time>2021-07-20T07:09:02Z</time>
      </trkpt>
      <trkpt lat="43.18981" lon="2.18792">
        <ele>248.15</ele>
        <time>2021-07-20T07:10:06Z</time>
      </trkpt>
      <trkpt lat="43.18975" lon="2.18769">
        <ele>249.21</ele>
        <time>2021-07-20T07:10:54Z</time>
      </trkpt>
      <trkpt lat="43.1895" lon="2.18728">
        <ele>254.19</ele>
        <time>2021-07-20T07:11:26Z</time>
      </trkpt>
      <trkpt lat="43.1892" lon="2.1868">
        <ele>259.65</ele>
        <time>2021-07-20T07:11:56Z</time>
      </trkpt>
      <trkpt lat="43.18858" lon="2.18633">
        <ele>267.13</ele>
        <time>2021-07-20T07:12:43Z</time>
      </trkpt>
      <trkpt lat="43.18824" lon="2.18605">
        <ele>272.71</ele>
        <time>2021-07-20T07:13:11Z</time>
      </trkpt>
      <trkpt lat="43.18774" lon="2.18589">
        <ele>280.87</ele>
        <time>2021-07-20T07:13:50Z</time>
      </trkpt>
      <trkpt lat="43.18761" lon="2.18585">
        <ele>283.58</ele>
        <time>2021-07-20T07:13:59Z</time>
      </trkpt>
      <trkpt lat="43.18701" lon="2.18612">
        <ele>297.1</ele>
        <time>2021-07-20T07:14:43Z</time>
      </trkpt>
      <trkpt lat="43.18616" lon="2.18674">
        <ele>308.33</ele>
        <time>2021-07-20T07:15:46Z</time>
      </trkpt>
      <trkpt lat="43.18556" lon="2.18699">
        <ele>318.29</ele>
        <time>2021-07-20T07:16:25Z</time>
      </trkpt>
      <trkpt lat="43.18563" lon="2.18684">
        <ele>320.38</ele>
        <time>2021-07-20T07:16:57Z</time>
      </trkpt>
      <trkpt lat="43.18545" lon="2.18671">
        <ele>320.19</ele>
        <time>2021-07-20T07:17:33Z</time>
      </trkpt>
      <trkpt lat="43.1847" lon="2.18636">
        <ele>306.35</ele>
        <time>2021-07-20T07:18:12Z</time>
      </trkpt>
      <trkpt lat="43.18443" lon="2.18625">
        <ele>304.44</ele>
        <time>2021-07-20T07:18:22Z</time>
      </trkpt>
      <trkpt lat="43.1842" lon="2.18613">
        <ele>302.75</ele>
        <time>2021-07-20T07:18:31Z</time>
      </trkpt>
      <trkpt lat="43.18381" lon="2.18608">
        <ele>300.37</ele>
        <time>2021-07-20T07:18:47Z</time>
      </trkpt>
      <trkpt lat="43.18251" lon="2.18673">
        <ele>285.67</ele>
        <time>2021-07-20T07:19:56Z</time>
      </trkpt>
      <trkpt lat="43.18263" lon="2.18612">
        <ele>284.25</ele>
        <time>2021-07-20T07:20:10Z</time>
      </trkpt>
      <trkpt lat="43.18272" lon="2.18583">
        <ele>282.19</ele>
        <time>2021-07-20T07:20:20Z</time>
      </trkpt>
      <trkpt lat="43.18297" lon="2.18527">
        <ele>279.26</ele>
        <time>2021-07-20T07:20:43Z</time>
      </trkpt>
      <trkpt lat="43.18381" lon="2.18437">
        <ele>275.44</ele>
        <time>2021-07-20T07:21:36Z</time>
      </trkpt>
      <trkpt lat="43.18392" lon="2.1837">
        <ele>272.8</ele>
        <time>2021-07-20T07:21:49Z</time>
      </trkpt>
      <trkpt lat="43.18401" lon="2.18346">
        <ele>270.85</ele>
        <time>2021-07-20T07:21:58Z</time>
      </trkpt>
      <trkpt lat="43.18407" lon="2.18325">
        <ele>269.69</ele>
        <time>2021-07-20T07:22:05Z</time>
      </trkpt>
      <trkpt lat="43.18433" lon="2.18294">
        <ele>266.96</ele>
        <time>2021-07-20T07:22:18Z</time>
      </trkpt>
      <trkpt lat="43.1845" lon="2.18232">
        <ele>263.65</ele>
        <time>2021-07-20T07:22:37Z</time>
      </trkpt>
      <trkpt lat="43.1846" lon="2.18184">
        <ele>261.04</ele>
        <time>2021-07-20T07:22:49Z</time>
      </trkpt>
      <trkpt lat="43.18476" lon="2.18046">
        <ele>254.51</ele>
        <time>2021-07-20T07:23:33Z</time>
      </trkpt>
      <trkpt lat="43.18479" lon="2.17933">
        <ele>253.86</ele>
        <time>2021-07-20T07:23:44Z</time>
      </trkpt>
      <trkpt lat="43.18589" lon="2.18009">
        <ele>254.74</ele>
        <time>2021-07-20T07:24:25Z</time>
      </trkpt>
      <trkpt lat="43.18697" lon="2.17961">
        <ele>263.33</ele>
        <time>2021-07-20T07:25:57Z</time>
      </trkpt>
      <trkpt lat="43.18859" lon="2.17742">
        <ele>277.09</ele>
        <time>2021-07-20T07:27:55Z</time>
      </trkpt>
      <trkpt lat="43.18874" lon="2.17723">
        <ele>277.28</ele>
        <time>2021-07-20T07:28:45Z</time>
      </trkpt>
      <trkpt lat="43.18894" lon="2.17738">
        <ele>280.31</ele>
        <time>2021-07-20T07:29:11Z</time>
      </trkpt>
      <trkpt lat="43.18909" lon="2.17752">
        <ele>285.07</ele>
        <time>2021-07-20T07:29:30Z</time>
      </trkpt>
      <trkpt lat="43.18934" lon="2.17761">
        <ele>286.67</ele>
        <time>2021-07-20T07:29:56Z</time>
      </trkpt>
      <trkpt lat="43.18933" lon="2.17763">
        <ele>286.99</ele>
        <time>2021-07-20T07:30:00Z</time>
      </trkpt>
      <trkpt lat="43.18945" lon="2.17755">
        <ele>283.27</ele>
        <time>2021-07-20T07:30:38Z</time>
      </trkpt>
      <trkpt lat="43.18994" lon="2.17681">
        <ele>282.02</ele>
        <time>2021-07-20T07:31:27Z</time>
      </trkpt>
      <trkpt lat="43.1903" lon="2.17669">
        <ele>280.89</ele>
        <time>2021-07-20T07:32:12Z</time>
      </trkpt>
      <trkpt lat="43.19054" lon="2.17663">
        <ele>279.09</ele>
        <time>2021-07-20T07:32:46Z</time>
      </trkpt>
      <trkpt lat="43.19128" lon="2.17641">
        <ele>264.23</ele>
        <time>2021-07-20T07:33:29Z</time>
      </trkpt>
      <trkpt lat="43.1925" lon="2.1768">
        <ele>261.43</ele>
        <time>2021-07-20T07:34:46Z</time>
      </trkpt>
      <trkpt lat="43.19262" lon="2.17664">
        <ele>268.46</ele>
        <time>2021-07-20T07:35:18Z</time>
      </trkpt>
      <trkpt lat="43.19276" lon="2.17649">
        <ele>274.56</ele>
        <time>2021-07-20T07:35:44Z</time>
      </trkpt>
      <trkpt lat="43.19292" lon="2.17636">
        <ele>276.78</ele>
        <time>2021-07-20T07:36:08Z</time>
      </trkpt>
      <trkpt lat="43.19327" lon="2.17595">
        <ele>274.83</ele>
        <time>2021-07-20T07:36:43Z</time>
      </trkpt>
      <trkpt lat="43.19339" lon="2.17567">
        <ele>272.66</ele>
        <time>2021-07-20T07:37:07Z</time>
      </trkpt>
      <trkpt lat="43.19358" lon="2.1753">
        <ele>274.05</ele>
        <time>2021-07-20T07:37:32Z</time>
      </trkpt>
      <trkpt lat="43.19379" lon="2.1751">
        <ele>272.89</ele>
        <time>2021-07-20T07:37:56Z</time>
      </trkpt>
      <trkpt lat="43.19397" lon="2.17432">
        <ele>272.31</ele>
        <time>2021-07-20T07:38:36Z</time>
      </trkpt>
      <trkpt lat="43.19408" lon="2.174">
        <ele>274.75</ele>
        <time>2021-07-20T07:39:03Z</time>
      </trkpt>
      <trkpt lat="43.19423" lon="2.17375">
        <ele>278.98</ele>
        <time>2021-07-20T07:39:29Z</time>
      </trkpt>
      <trkpt lat="43.19426" lon="2.17341">
        <ele>277.48</ele>
        <time>2021-07-20T07:39:55Z</time>
      </trkpt>
      <trkpt lat="43.19392" lon="2.1729">
        <ele>286.2</ele>
        <time>2021-07-20T07:40:35Z</time>
      </trkpt>
      <trkpt lat="43.19378" lon="2.17255">
        <ele>283.97</ele>
        <time>2021-07-20T07:40:59Z</time>
      </trkpt>
      <trkpt lat="43.19374" lon="2.1723">
        <ele>282.16</ele>
        <time>2021-07-20T07:41:19Z</time>
      </trkpt>
      <trkpt lat="43.19388" lon="2.17199">
        <ele>279.93</ele>
        <time>2021-07-20T07:41:44Z</time>
      </trkpt>
      <trkpt lat="43.19396" lon="2.17183">
        <ele>278.7</ele>
        <time>2021-07-20T07:41:50Z</time>
      </trkpt>
      <trkpt lat="43.194" lon="2.17169">
        <ele>278.33</ele>
        <time>2021-07-20T07:41:54Z</time>
      </trkpt>
      <trkpt lat="43.19406" lon="2.17134">
        <ele>277.69</ele>
        <time>2021-07-20T07:42:03Z</time>
      </trkpt>
      <trkpt lat="43.19411" lon="2.17111">
        <ele>277.06</ele>
        <time>2021-07-20T07:42:12Z</time>
      </trkpt>
      <trkpt lat="43.19399" lon="2.17084">
        <ele>275.96</ele>
        <time>2021-07-20T07:42:22Z</time>
      </trkpt>
      <trkpt lat="43.19389" lon="2.17057">
        <ele>272.95</ele>
        <time>2021-07-20T07:42:32Z</time>
      </trkpt>
      <trkpt lat="43.19368" lon="2.17007">
        <ele>269.19</ele>
        <time>2021-07-20T07:42:42Z</time>
      </trkpt>
      <trkpt lat="43.19377" lon="2.16976">
        <ele>267.99</ele>
        <time>2021-07-20T07:43:03Z</time>
      </trkpt>
      <trkpt lat="43.194" lon="2.16912">
        <ele>263.33</ele>
        <time>2021-07-20T07:43:37Z</time>
      </trkpt>
      <trkpt lat="43.1942" lon="2.16885">
        <ele>261.45</ele>
        <time>2021-07-20T07:43:47Z</time>
      </trkpt>
      <trkpt lat="43.19427" lon="2.16856">
        <ele>259.55</ele>
        <time>2021-07-20T07:43:55Z</time>
      </trkpt>
      <trkpt lat="43.19432" lon="2.16829">
        <ele>256.69</ele>
        <time>2021-07-20T07:44:03Z</time>
      </trkpt>
      <trkpt lat="43.19436" lon="2.16796">
        <ele>253.42</ele>
        <time>2021-07-20T07:44:13Z</time>
      </trkpt>
      <trkpt lat="43.19437" lon="2.16756">
        <ele>251.06</ele>
        <time>2021-07-20T07:44:24Z</time>
      </trkpt>
      <trkpt lat="43.19438" lon="2.16714">
        <ele>249.05</ele>
        <time>2021-07-20T07:44:35Z</time>
      </trkpt>
      <trkpt lat="43.19439" lon="2.16679">
        <ele>247.62</ele>
        <time>2021-07-20T07:44:45Z</time>
      </trkpt>
      <trkpt lat="43.19435" lon="2.16646">
        <ele>246.42</ele>
        <time>2021-07-20T07:44:55Z</time>
      </trkpt>
      <trkpt lat="43.1944" lon="2.16618">
        <ele>244.73</ele>
        <time>2021-07-20T07:45:10Z</time>
      </trkpt>
      <trkpt lat="43.19428" lon="2.1658">
        <ele>242.98</ele>
        <time>2021-07-20T07:45:24Z</time>
      </trkpt>
      <trkpt lat="43.19472" lon="2.16552">
        <ele>238.43</ele>
        <time>2021-07-20T07:45:39Z</time>
      </trkpt>
      <trkpt lat="43.1949" lon="2.16522">
        <ele>234.35</ele>
        <time>2021-07-20T07:45:52Z</time>
      </trkpt>
      <trkpt lat="43.19514" lon="2.16491">
        <ele>229.83</ele>
        <time>2021-07-20T07:46:07Z</time>
      </trkpt>
      <trkpt lat="43.1954" lon="2.16486">
        <ele>227.7</ele>
        <time>2021-07-20T07:46:16Z</time>
      </trkpt>
      <trkpt lat="43.1956" lon="2.16483">
        <ele>226.09</ele>
        <time>2021-07-20T07:46:24Z</time>
      </trkpt>
      <trkpt lat="43.19582" lon="2.16482">
        <ele>224.74</ele>
        <time>2021-07-20T07:46:32Z</time>
      </trkpt>
      <trkpt lat="43.19603" lon="2.16476">
        <ele>223.73</ele>
        <time>2021-07-20T07:46:40Z</time>
      </trkpt>
      <trkpt lat="43.19623" lon="2.16468">
        <ele>222.77</ele>
        <time>2021-07-20T07:46:48Z</time>
      </trkpt>
      <trkpt lat="43.19642" lon="2.16454">
        <ele>222.21</ele>
        <time>2021-07-20T07:46:56Z</time>
      </trkpt>
      <trkpt lat="43.19653" lon="2.16431">
        <ele>221.96</ele>
        <time>2021-07-20T07:47:04Z</time>
      </trkpt>
      <trkpt lat="43.19664" lon="2.16409">
        <ele>221.1</ele>
        <time>2021-07-20T07:47:13Z</time>
      </trkpt>
      <trkpt lat="43.19671" lon="2.16385">
        <ele>219.5</ele>
        <time>2021-07-20T07:47:23Z</time>
      </trkpt>
      <trkpt lat="43.19676" lon="2.1635">
        <ele>214.4</ele>
        <time>2021-07-20T07:47:38Z</time>
      </trkpt>
      <trkpt lat="43.19683" lon="2.16316">
        <ele>210.07</ele>
        <time>2021-07-20T07:47:50Z</time>
      </trkpt>
      <trkpt lat="43.19685" lon="2.16279">
        <ele>205.6</ele>
        <time>2021-07-20T07:48:02Z</time>
      </trkpt>
      <trkpt lat="43.19705" lon="2.16252">
        <ele>200.34</ele>
        <time>2021-07-20T07:48:19Z</time>
      </trkpt>
      <trkpt lat="43.19736" lon="2.16204">
        <ele>195.03</ele>
        <time>2021-07-20T07:48:40Z</time>
      </trkpt>
      <trkpt lat="43.1974" lon="2.16195">
        <ele>194.52</ele>
        <time>2021-07-20T07:48:44Z</time>
      </trkpt>
      <trkpt lat="43.19754" lon="2.16139">
        <ele>196.17</ele>
        <time>2021-07-20T07:49:03Z</time>
      </trkpt>
      <trkpt lat="43.19766" lon="2.1611">
        <ele>198.21</ele>
        <time>2021-07-20T07:49:12Z</time>
      </trkpt>
      <trkpt lat="43.19779" lon="2.16083">
        <ele>200.12</ele>
        <time>2021-07-20T07:49:22Z</time>
      </trkpt>
      <trkpt lat="43.19797" lon="2.16059">
        <ele>200.3</ele>
        <time>2021-07-20T07:49:33Z</time>
      </trkpt>
      <trkpt lat="43.19818" lon="2.16044">
        <ele>200.05</ele>
        <time>2021-07-20T07:49:46Z</time>
      </trkpt>
      <trkpt lat="43.19842" lon="2.16024">
        <ele>200.88</ele>
        <time>2021-07-20T07:49:57Z</time>
      </trkpt>
      <trkpt lat="43.19862" lon="2.16005">
        <ele>200.58</ele>
        <time>2021-07-20T07:50:07Z</time>
      </trkpt>
      <trkpt lat="43.1988" lon="2.15979">
        <ele>197.43</ele>
        <time>2021-07-20T07:50:21Z</time>
      </trkpt>
      <trkpt lat="43.1989" lon="2.15942">
        <ele>193.86</ele>
        <time>2021-07-20T07:50:33Z</time>
      </trkpt>
      <trkpt lat="43.19897" lon="2.15915">
        <ele>192.59</ele>
        <time>2021-07-20T07:50:41Z</time>
      </trkpt>
      <trkpt lat="43.19904" lon="2.15889">
        <ele>192.18</ele>
        <time>2021-07-20T07:50:50Z</time>
      </trkpt>
      <trkpt lat="43.19905" lon="2.15859">
        <ele>192.52</ele>
        <time>2021-07-20T07:50:59Z</time>
      </trkpt>
      <trkpt lat="43.19904" lon="2.1583">
        <ele>193.34</ele>
        <time>2021-07-20T07:51:07Z</time>
      </trkpt>
      <trkpt lat="43.19898" lon="2.15801">
        <ele>193.77</ele>
        <time>2021-07-20T07:51:17Z</time>
      </trkpt>
      <trkpt lat="43.19893" lon="2.15771">
        <ele>194.48</ele>
        <time>2021-07-20T07:51:28Z</time>
      </trkpt>
      <trkpt lat="43.19899" lon="2.1569">
        <ele>195.21</ele>
        <time>2021-07-20T07:51:55Z</time>
      </trkpt>
      <trkpt lat="43.19906" lon="2.15644">
        <ele>195.78</ele>
        <time>2021-07-20T07:52:13Z</time>
      </trkpt>
      <trkpt lat="43.19907" lon="2.15611">
        <ele>195.41</ele>
        <time>2021-07-20T07:52:22Z</time>
      </trkpt>
      <trkpt lat="43.19913" lon="2.15566">
        <ele>194.69</ele>
        <time>2021-07-20T07:52:36Z</time>
      </trkpt>
      <trkpt lat="43.19923" lon="2.15531">
        <ele>194.76</ele>
        <time>2021-07-20T07:52:47Z</time>
      </trkpt>
      <trkpt lat="43.19932" lon="2.15499">
        <ele>195.4</ele>
        <time>2021-07-20T07:52:57Z</time>
      </trkpt>
      <trkpt lat="43.19949" lon="2.15457">
        <ele>195.33</ele>
        <time>2021-07-20T07:53:11Z</time>
      </trkpt>
      <trkpt lat="43.19961" lon="2.15427">
        <ele>195.34</ele>
        <time>2021-07-20T07:53:20Z</time>
      </trkpt>
      <trkpt lat="43.19973" lon="2.15404">
        <ele>195.3</ele>
        <time>2021-07-20T07:53:29Z</time>
      </trkpt>
      <trkpt lat="43.19988" lon="2.1538">
        <ele>195.54</ele>
        <time>2021-07-20T07:53:38Z</time>
      </trkpt>
      <trkpt lat="43.2" lon="2.15355">
        <ele>195.98</ele>
        <time>2021-07-20T07:53:46Z</time>
      </trkpt>
      <trkpt lat="43.20001" lon="2.15333">
        <ele>196.52</ele>
        <time>2021-07-20T07:53:58Z</time>
      </trkpt>
      <trkpt lat="43.19988" lon="2.15323">
        <ele>198.65</ele>
        <time>2021-07-20T07:54:28Z</time>
      </trkpt>
      <trkpt lat="43.19972" lon="2.1535">
        <ele>198.65</ele>
        <time>2021-07-20T07:54:43Z</time>
      </trkpt>
      <trkpt lat="43.19958" lon="2.15374">
        <ele>198.77</ele>
        <time>2021-07-20T07:54:56Z</time>
      </trkpt>
      <trkpt lat="43.19939" lon="2.15387">
        <ele>198.93</ele>
        <time>2021-07-20T07:55:07Z</time>
      </trkpt>
      <trkpt lat="43.1992" lon="2.15383">
        <ele>201.11</ele>
        <time>2021-07-20T07:55:18Z</time>
      </trkpt>
      <trkpt lat="43.199" lon="2.15374">
        <ele>204.23</ele>
        <time>2021-07-20T07:55:28Z</time>
      </trkpt>
      <trkpt lat="43.19884" lon="2.15373">
        <ele>208.13</ele>
        <time>2021-07-20T07:55:41Z</time>
      </trkpt>
      <trkpt lat="43.19881" lon="2.15372">
        <ele>208.24</ele>
        <time>2021-07-20T07:55:42Z</time>
      </trkpt>
      <trkpt lat="43.19868" lon="2.1538">
        <ele>208.3</ele>
        <time>2021-07-20T07:55:53Z</time>
      </trkpt>
      <trkpt lat="43.19859" lon="2.15398">
        <ele>208.64</ele>
        <time>2021-07-20T07:56:03Z</time>
      </trkpt>
      <trkpt lat="43.19847" lon="2.15421">
        <ele>208.88</ele>
        <time>2021-07-20T07:56:13Z</time>
      </trkpt>
      <trkpt lat="43.19836" lon="2.15445">
        <ele>207.2</ele>
        <time>2021-07-20T07:56:21Z</time>
      </trkpt>
      <trkpt lat="43.19824" lon="2.15468">
        <ele>205.36</ele>
        <time>2021-07-20T07:56:33Z</time>
      </trkpt>
      <trkpt lat="43.19798" lon="2.15473">
        <ele>207.48</ele>
        <time>2021-07-20T07:56:53Z</time>
      </trkpt>
      <trkpt lat="43.19777" lon="2.15473">
        <ele>211.18</ele>
        <time>2021-07-20T07:57:09Z</time>
      </trkpt>
      <trkpt lat="43.19755" lon="2.15473">
        <ele>215.35</ele>
        <time>2021-07-20T07:57:27Z</time>
      </trkpt>
      <trkpt lat="43.19734" lon="2.15479">
        <ele>220.22</ele>
        <time>2021-07-20T07:57:48Z</time>
      </trkpt>
      <trkpt lat="43.19715" lon="2.15499">
        <ele>222.54</ele>
        <time>2021-07-20T07:58:07Z</time>
      </trkpt>
      <trkpt lat="43.19696" lon="2.1552">
        <ele>224.97</ele>
        <time>2021-07-20T07:58:26Z</time>
      </trkpt>
      <trkpt lat="43.19682" lon="2.1551">
        <ele>229.42</ele>
        <time>2021-07-20T07:58:45Z</time>
      </trkpt>
      <trkpt lat="43.19676" lon="2.15483">
        <ele>231.36</ele>
        <time>2021-07-20T07:58:58Z</time>
      </trkpt>
      <trkpt lat="43.19672" lon="2.15456">
        <ele>232.72</ele>
        <time>2021-07-20T07:59:11Z</time>
      </trkpt>
      <trkpt lat="43.19667" lon="2.1543">
        <ele>233.35</ele>
        <time>2021-07-20T07:59:21Z</time>
      </trkpt>
      <trkpt lat="43.1966" lon="2.15401">
        <ele>233.3</ele>
        <time>2021-07-20T07:59:30Z</time>
      </trkpt>
      <trkpt lat="43.19651" lon="2.15373">
        <ele>232.87</ele>
        <time>2021-07-20T07:59:38Z</time>
      </trkpt>
      <trkpt lat="43.19643" lon="2.15348">
        <ele>231.77</ele>
        <time>2021-07-20T07:59:46Z</time>
      </trkpt>
      <trkpt lat="43.19632" lon="2.15323">
        <ele>228.81</ele>
        <time>2021-07-20T07:59:55Z</time>
      </trkpt>
      <trkpt lat="43.19619" lon="2.153">
        <ele>225.51</ele>
        <time>2021-07-20T08:00:04Z</time>
      </trkpt>
      <trkpt lat="43.19608" lon="2.15276">
        <ele>222.87</ele>
        <time>2021-07-20T08:00:12Z</time>
      </trkpt>
      <trkpt lat="43.19607" lon="2.15251">
        <ele>221.22</ele>
        <time>2021-07-20T08:00:19Z</time>
      </trkpt>
      <trkpt lat="43.19621" lon="2.15234">
        <ele>219.87</ele>
        <time>2021-07-20T08:00:26Z</time>
      </trkpt>
      <trkpt lat="43.19631" lon="2.15214">
        <ele>219.22</ele>
        <time>2021-07-20T08:00:34Z</time>
      </trkpt>
      <trkpt lat="43.19625" lon="2.15185">
        <ele>218.74</ele>
        <time>2021-07-20T08:00:42Z</time>
      </trkpt>
      <trkpt lat="43.19611" lon="2.15154">
        <ele>218.6</ele>
        <time>2021-07-20T08:00:50Z</time>
      </trkpt>
      <trkpt lat="43.19611" lon="2.15128">
        <ele>219.65</ele>
        <time>2021-07-20T08:01:00Z</time>
      </trkpt>
      <trkpt lat="43.19616" lon="2.15099">
        <ele>221.68</ele>
        <time>2021-07-20T08:01:11Z</time>
      </trkpt>
      <trkpt lat="43.19619" lon="2.15071">
        <ele>223.75</ele>
        <time>2021-07-20T08:01:21Z</time>
      </trkpt>
      <trkpt lat="43.19623" lon="2.15042">
        <ele>224.75</ele>
        <time>2021-07-20T08:01:31Z</time>
      </trkpt>
      <trkpt lat="43.19626" lon="2.15011">
        <ele>224.78</ele>
        <time>2021-07-20T08:01:40Z</time>
      </trkpt>
      <trkpt lat="43.19627" lon="2.14982">
        <ele>223.82</ele>
        <time>2021-07-20T08:01:49Z</time>
      </trkpt>
      <trkpt lat="43.19628" lon="2.14954">
        <ele>222.26</ele>
        <time>2021-07-20T08:01:57Z</time>
      </trkpt>
      <trkpt lat="43.19634" lon="2.14927">
        <ele>220.96</ele>
        <time>2021-07-20T08:02:06Z</time>
      </trkpt>
      <trkpt lat="43.19644" lon="2.14895">
        <ele>219.62</ele>
        <time>2021-07-20T08:02:16Z</time>
      </trkpt>
      <trkpt lat="43.19655" lon="2.14866">
        <ele>216.75</ele>
        <time>2021-07-20T08:02:27Z</time>
      </trkpt>
      <trkpt lat="43.19702" lon="2.14827">
        <ele>207.31</ele>
        <time>2021-07-20T08:02:54Z</time>
      </trkpt>
      <trkpt lat="43.19729" lon="2.14806">
        <ele>203.4</ele>
        <time>2021-07-20T08:03:07Z</time>
      </trkpt>
      <trkpt lat="43.19741" lon="2.14778">
        <ele>202.14</ele>
        <time>2021-07-20T08:03:16Z</time>
      </trkpt>
      <trkpt lat="43.19742" lon="2.14768">
        <ele>201.98</ele>
        <time>2021-07-20T08:03:19Z</time>
      </trkpt>
      <trkpt lat="43.19742" lon="2.14745">
        <ele>201.76</ele>
        <time>2021-07-20T08:03:27Z</time>
      </trkpt>
      <trkpt lat="43.1974" lon="2.14708">
        <ele>201.54</ele>
        <time>2021-07-20T08:03:45Z</time>
      </trkpt>
      <trkpt lat="43.19735" lon="2.14689">
        <ele>175.37</ele>
        <time>2021-07-20T08:04:34Z</time>
      </trkpt>
    </trkseg>
  </trk>
</gpx>